Winnerscup USA - chiip check inventory

Station: hand scan - T Race

Distance: 1 Miles

Release: 31-Oct-2017 08:00

Weather Release:    Arrival:

Wind at Release:     Wind at Arrival:

Temp at Release: °    Temp at Arrival: °

Lofts: 53

Birds: 321

Clocked: 306

Good Luck to Everyone!
Drops Pos Breeder Pigeon Name Color Sex Ent Arrival Speed To Win Eligible ABC
1 Hi-Cal Connection - CA 0785-AU17-HCAL Under Seige PEN C 1 08:55:12.00 31.884 00:00:00 Yes
2 Prout Lofts - CA 28550-AU17-JEDD TABLOID BC C 1 08:56:54.00 30.931 00:01:42 Yes
3 Acre Farms - CA 0348-AU17-GENE Paid to Show SLAT C 1 08:57:43.00 30.494 00:02:31 Yes
4 Dream Team - VT 0698-AU17-JCZL Constant Pleasure BB C 1 08:58:22.00 30.154 00:03:10 Yes
5 Sarrett Racing Pigeons - TX 7024-AU17-PPH Similator BB C 1 08:59:19.00 29.671 00:04:07 Yes
6 Sexton's Loft - IA 31778-AU17-AA The Right Direction BC H 1 09:00:01.00 29.325 00:04:49 Yes
7 Crescendo Loft - NM 18441-AU17-AA Horizon Echo BB C 1 09:00:31.00 29.083 00:05:19 Yes
8 New Era Loft - PA 11611-AU17-ARPU Silhouette BCP H 1 09:01:03.00 28.829 00:05:51 Yes
9 Nesler Boyz - CA 1796-AU17-TCH Front Runner BWFP C 1 09:01:45.00 28.502 00:06:33 Yes
10 Sexton's Loft - IA 31786-AU17-AA Dialed 4 Dollars WHGZ C 2 09:02:54.00 27.981 00:07:42 Yes
11 Sofija Loft - IL 0019-AU17-BEKO Baraccuda BB H 1 09:03:21.00 27.782 00:08:09 Yes
12 Ganus Family Loft - IN 0295-AU17-GFL Delerionn BC H 1 09:03:55.00 27.536 00:08:43 Yes
13 1-Tonyloft - VA 0633-AU17-ZHNG Emperors Diva BC H 1 09:04:22.00 27.343 00:09:10 Yes
14 Jimmy Zheng Loft - MS 0680-AU17-ZHNG Emperors Deciple BC C 1 09:04:57.00 27.098 00:09:45 Yes
15 New Era Loft - PA 11621-AU17-ARPU ShowPiece SIL C 2 09:05:28.00 26.884 00:10:16 Yes
16 Dream Team - VT 0610-AU17-JCZL Great Rendition BB C 2 09:05:54.00 26.707 00:10:42 Yes
17 Nesneb Racing Loft - AL 17148-AU17-MOB Auto Mode BCW C 1 09:06:32.00 26.453 00:11:20 Yes
18 Sienna Loft - NC 36773-AU17-AA American Pied BCP C 1 09:07:14.00 26.177 00:12:02 Yes
19 Nesneb Racing Loft - AL 17146-AU17-MOB Done That BBWF C 2 09:07:54.00 25.920 00:12:42 Yes
20 Daehn/Miele - FL 0401-AU17-NWFI Super Man BB C 1 09:08:32.00 25.681 00:13:20 Yes
21 Spirit In The Sky - IL 0375-AU17-LCC Highest Bid BC C 1 09:10:48.00 24.859 00:15:36 Yes
22 Nesneb Racing Loft - AL 17141-AU17-MOB In The Money BB H 3 09:11:23.00 24.656 00:16:11 Yes
23 Sheila Gabler - IL 0207-AU17-ADL Dialed In Again BB C 1 09:11:51.00 24.495 00:16:39 Yes
24 Dal-Tex R P C - TX 0440-AU17-DLLS Blue Horizon BB H 1 09:12:18.00 24.343 00:17:06 Yes
25 Daehn/Miele - FL 3841-AU17-FOYS Sweet Million BC C 2 09:12:44.00 24.198 00:17:32 Yes
26 P/R Loft - CA 0282-AU17-GSF Mezmerise BB H 1 09:13:11.00 24.049 00:17:59 Yes
27 New Era Loft - PA 11625-AU17-ARPU Let It Be Told RC C 3 09:30:53.00 19.365 00:35:41 Yes
28 El Dorado Loft - TX 0184-AU17-TXAS Manfreddy BKCW C 1 09:31:32.00 19.228 00:36:20 Yes
29 New Era Loft - PA 11622-AU17-ARPU American Joy ML H 4 09:31:57.00 19.141 00:36:45 Yes
30 Bieche-Stevenson - CA 7494-AU17-BIEC Carmela BC H 1 09:32:50.00 18.959 00:37:38 Yes
31 New Era Loft - PA 11623-AU17-ARPU Affirmative BC H 5 09:33:20.00 18.857 00:38:08 Yes
32 Sexton's Loft - IA 31790-AU17-AA Instant Pleasure BC H 3 09:33:54.00 18.743 00:38:42 Yes
33 1-Tonyloft - VA 5629-AU17-TONY Cinderella BC H 2 09:34:23.00 18.647 00:39:11 Yes
34 Larry Lewis - OK 8146-AU17-TRPC No Exemption BC C 1 09:36:52.00 18.169 00:41:40 Yes
35 Bieche-Stevenson - CA 7386-AU17-BIEC By Design BC C 2 09:37:16.00 18.095 00:42:04 Yes
36 Dal-Tex R P C - TX 0444-AU17-DLLS Gray Eagle GR C 2 09:37:42.00 18.014 00:42:30 Yes
37 Champ Camp - IN 0281-AU17-CHMP Decent Exposure BWFP H 1 09:38:03.00 17.950 00:42:51 Yes
38 Dream Team - VT 0707-AU17-JCZL Tower of Power BC H 3 09:38:28.00 17.874 00:43:16 Yes
39 Daehn/Miele - FL 3836-AU17-FOYS Lasting Impression BB C 3 09:38:51.00 17.805 00:43:39 Yes
40 Dal-Tex R P C - TX 0448-AU17-DLLS Esmeralda BC H 3 09:39:15.00 17.733 00:44:03 Yes
41 Sexton's Loft - IA 31781-AU17-AA Mitigator BB C 4 09:39:46.00 17.641 00:44:34 Yes
42 Bolgar Loft - CA 7650-AU17-FTST Red Dawn RC C 1 09:40:19.00 17.544 Yes
43 Daehn/Miele - FL 3831-AU17-FOYS Kaapi BC C 4 09:40:51.00 17.452 00:45:39 Yes
44 Bieche-Stevenson - CA 7444-AU17-BIEC Blue Million BBWF C 3 09:41:19.00 17.371 00:46:07 Yes
45 Larry Lewis - OK 8142-AU17-TRPC Travel Frenzy BC C 2 09:41:47.00 17.292 00:46:35 Yes
46 Sarrett Racing Pigeons - TX 7026-AU17-PPH Amarillo Queen BC H 2 09:42:33.00 17.162 00:47:21 Yes
47 Red Ass Ranch - TX 0163-AU17-RAR Hulk Hogan's Back SMOK C 1 09:42:57.00 17.096 00:47:45 Yes
48 Ken Easley-Silvercreek - NM 5151-AU17-ESLY Sune Echo BB C 1 09:43:43.00 16.969 00:48:31 Hold
49 Sarrett Racing Pigeons - TX 7049-AU17-PPH Hailea's Run SMOK H 3 09:44:14.00 16.885 00:49:02 Yes
50 Mike's Loft - MS 24869-AU17-JEDD Pato De Plata RC C 1 09:44:47.00 16.797 00:49:35 Yes
51 Daehn/Miele - FL 3839-AU17-FOYS Melany BB H 5 09:45:14.00 16.725 00:50:02 Yes
52 Sienna Loft - NC 36772-AU17-AA The General BB C 2 09:45:42.00 16.651 00:50:30 Yes
53 Tar Syndicate - PA 7974-AU17-TAR Cloud 74 VELV C 1 09:46:33.00 16.518 00:51:21 Yes
54 Sarrett Racing Pigeons - TX 7048-AU17-PPH Target' BB H 4 09:47:00.00 16.449 00:51:48 Yes
55 Nesler Boyz - CA 1800-AU17-TCH Destined Choice BCW C 2 09:47:59.00 16.299 00:52:47 Yes
56 Johnny's Automotive - CA 32889-AU17-JEDD Blue Diva BB H 1 09:48:26.00 16.231 00:53:14 Yes
57 Sexton's Loft - IA 31763-AU17-AA New Apollo BC C 5 09:49:11.00 16.120 00:53:59 Yes
58 Ojibwe Loft - OK 0042-AU17-OJIB Desert Wren BC H 1 09:49:40.00 16.049 00:54:28 Yes
59 Racing Pigeon Mall - WA 0714-AU17-RPM Main Asset BB C 1 09:50:16.00 15.961 00:55:04 Yes
60 Jack's Loft - CA 36719-AU17-ARPU Mas Arena BC C 1 09:50:52.00 15.875 00:55:40 Yes
61 Bluestreak - OK 7889-AU17-TRPC Troubled BL C 1 09:51:16.00 15.818 00:56:04 Yes
62 Daehn/Miele - FL 3832-AU17-FOYS Redefined Exit BC C 6 09:51:48.00 15.742 00:56:36 Yes
63 Sienna Loft - NC 37802-AU17-AA Admiral Halsey BB C 3 09:52:12.00 15.686 00:57:00 Yes
64 Hi-Cal Connection - CA 0782-AU17-HCAL Sea Bee BB C 2 09:52:49.00 15.601 00:57:37 Yes
65 A D L Loft - IL 0190-AU17-ADL Allegiant BB C 1 09:56:40.00 15.086 01:01:28 Yes
66 A B C Loft2 - NY 59780-AU17-ARPU National Asset BB C 1 09:57:07.00 15.028 01:01:55 Yes
67 John Labat - HI 0024-AU17-LBAT Kihei BB H 1 09:57:32.00 14.974 01:02:20 Yes
68 Acre Farms - CA 0305-AU17-GENE Blade Runner BB C 2 09:57:51.00 14.934 01:02:39 Yes
69 Sheila Gabler - IL 0202-AU17-ADL National Two BB C 2 09:58:22.00 14.869 01:03:10 Yes
70 Tar Syndicate - PA 7976-AU17-TAR Game to Win DC C 2 09:58:51.00 14.809 01:03:39 Yes
71 Ken Easley-Silvercreek - NM 5111-AU17-ESLY Blue Laura BB H 2 09:59:17.00 14.755 01:04:05 Hold
72 1-Tonyloft - VA 0639-AU17-ZHNG Check me Twice BC C 3 09:59:43.00 14.701 01:04:31 Yes
73 G & L Loft - OR 2392-AU17-WPC American Standard BWFP C 1 10:01:32.00 14.482 01:06:20 Yes
74 Crescendo Loft - NM 18436-AU17-AA KAZOEUS BB C 2 10:02:00.00 14.426 01:06:48 Yes
75 Racing Pigeon Mall - WA 0717-AU17-RPM Patriot 7 BROZ H 2 10:02:36.00 14.356 01:07:24 Yes
76 Sofija Loft - IL 0011-AU17-BEKO Ludacris BBPD C 2 10:03:18.00 14.274 01:08:06 Yes
77 A D L Loft - IL 0192-AU17-ADL Over Achiever BBWF C 2 10:03:55.00 14.203 01:08:43 Yes
78 Hosanna Lofts - OK 35974-AU17-ARPU LEXICON BB H 1 10:04:13.00 14.169 01:09:01 Yes
79 Hi-Cal Connection - CA 0758-AU17-HCAL Blue Rachel BBWF H 3 10:04:43.00 14.112 01:09:31 Yes
80 Nesler Boyz - CA 1764-AU17-TCH Tag Me Sold BB H 3 10:05:09.00 14.063 01:09:57 Yes
81 Nesler Boyz - CA 1797-AU17-TCH Done It All BC H 4 10:05:40.00 14.005 01:10:28 Yes
82 A P C Loft - TX 17323-AU17-APC Clever Endeavor BCW C 1 10:06:57.00 13.864 01:11:45 Yes
83 Hollywood Lou Loft - FL 0056-AU17-LOU Escapade BC C 1 10:07:24.00 13.815 01:12:12 Yes
84 Hollywood Lou Loft - FL 0067-AU17-LOU Key Witness SMBB C 2 10:08:00.00 13.750 01:12:48 Yes
85 Dal-Tex R P C - TX 0450-AU17-DLLS Rustic Pharoh BBWF C 4 10:08:21.00 13.713 01:13:09 Yes
86 Acre Farms - CA 0345-AU17-GENE Haileah BB H 3 10:08:45.00 13.670 01:13:33 Yes
87 Bolgar Loft - CA 15842-AU17-FOYS Reziko SLAT C 2 10:09:08.00 13.629 01:13:56 Yes
88 Team Fujitake - HI 13912-AU17-FOYS Last Samurai BCP C 1 10:09:28.00 13.594 01:14:16 Yes
89 Jack's Loft - CA 36716-AU17-ARPU The Magician GR C 2 10:10:04.00 13.532 01:14:52 Yes
90 Hollywood Lou Loft - FL 0074-AU17-LOU Imposter BWFP C 3 10:10:30.00 13.487 01:15:18 Yes
91 Jack's Loft - CA 36718-AU17-ARPU Britanny GR H 3 10:10:52.00 13.449 01:15:40 Yes
92 Racing Pigeon Mall - WA 0724-AU17-RPM Bet America BB C 3 10:11:17.00 13.406 01:16:05 Yes
93 Prout Lofts - CA 0084-AU17-PRT Neslers Pick BB C 2 10:11:39.00 13.369 01:16:27 Yes
94 Larry Lewis - OK 8158-AU17-TRPC White Matter WHGZ H 3 10:12:08.00 13.320 01:16:56 Yes
95 Ganus Family Loft - IN 0296-AU17-GFL Draft Me Now BC C 2 10:13:02.00 13.230 01:17:50 Yes
96 Canto & Wiltz - MA 10985-AU17-AA Dream City BB C 1 10:13:22.00 13.197 01:18:10 Hold
97 1-Tonyloft - VA 0676-AU17-ZHNG National Power BWFP C 4 10:14:03.00 13.129 01:18:51 Yes
98 Sexton's Loft - IA 31788-AU17-AA Under Achiever BC H 6 10:17:47.00 12.774 01:22:35 Yes
99 Larry Lewis - OK 8155-AU17-TRPC Mind Raker RCPD C 4 10:18:39.00 12.694 01:23:27 Yes
100 Valhalla Loft - CA 0492-AU17-WSJ REIMAR BB C 1 10:19:37.00 12.606 01:24:25 Yes

There are 312 bird records

Note: These Race Results are unofficial and subject to change until verified by the Race Committee and declared final.